createdAt,value
2022-11-09T00:01:05.568Z,100258.06
2022-11-09T00:03:35.478Z,100269.38
2022-11-09T00:06:02.272Z,100293.56
2022-11-09T00:08:29.543Z,100303.56
2022-11-09T00:11:01.887Z,100299.09
2022-11-09T00:13:28.692Z,100300.44
2022-11-09T00:15:59.028Z,100304.00
2022-11-09T00:18:25.662Z,100315.91
2022-11-09T00:20:52.884Z,100311.56
2022-11-09T00:23:19.679Z,100309.97
2022-11-09T00:25:47.684Z,100306.97
2022-11-09T00:28:14.986Z,100317.81
2022-11-09T00:30:48.859Z,100306.75
2022-11-09T00:33:16.366Z,100294.94
2022-11-09T00:35:43.238Z,100302.16
2022-11-09T00:38:09.861Z,100287.81
2022-11-09T00:40:38.177Z,100273.56
2022-11-09T00:43:04.884Z,100277.25
2022-11-09T00:45:31.608Z,100292.88
2022-11-09T00:47:58.203Z,100300.97
2022-11-09T00:50:25.032Z,100329.06
2022-11-09T00:52:58.599Z,100327.47
2022-11-09T00:55:25.875Z,100332.91
2022-11-09T00:57:53.120Z,100337.78
2022-11-09T01:00:23.319Z,100346.47
2022-11-09T01:02:50.947Z,100328.22
2022-11-09T01:05:19.272Z,100337.13
2022-11-09T01:07:45.897Z,100330.38
2022-11-09T01:10:12.479Z,100325.72
2022-11-09T01:12:39.088Z,100334.06
2022-11-09T01:15:06.348Z,100322.16
2022-11-09T01:17:34.079Z,100317.88
2022-11-09T01:20:00.603Z,100313.00
2022-11-09T01:22:27.233Z,100327.53
2022-11-09T01:24:54.952Z,100334.03
2022-11-09T01:27:23.982Z,100331.63
2022-11-09T01:29:50.732Z,100329.69
2022-11-09T01:32:17.885Z,100329.19
2022-11-09T01:34:44.942Z,100323.03
2022-11-09T01:37:11.572Z,100318.03
2022-11-09T01:39:38.229Z,100319.16
2022-11-09T01:42:04.998Z,100326.44
2022-11-09T01:44:33.710Z,100336.88
2022-11-09T01:47:14.564Z,100336.94
2022-11-09T01:49:56.713Z,100333.22
2022-11-09T01:52:32.144Z,100336.81
2022-11-09T01:55:04.368Z,100338.72
2022-11-09T01:57:38.443Z,100322.03
2022-11-09T02:00:14.150Z,100325.56
2022-11-09T02:02:45.991Z,100327.50
2022-11-09T02:05:17.551Z,100322.69
2022-11-09T02:07:46.961Z,100323.25
2022-11-09T02:10:24.031Z,100336.22
2022-11-09T02:12:54.305Z,100328.72
2022-11-09T02:15:22.060Z,100327.13
2022-11-09T02:17:53.718Z,100323.88
2022-11-09T02:20:22.831Z,100321.72
2022-11-09T02:22:54.518Z,100313.91
2022-11-09T02:25:21.306Z,100312.56
2022-11-09T02:27:51.037Z,100319.28
2022-11-09T02:30:19.270Z,100309.41
2022-11-09T02:32:47.924Z,100309.44
2022-11-09T02:35:14.604Z,100299.28
2022-11-09T02:37:50.765Z,100290.75
2022-11-09T02:40:29.851Z,100285.94
2022-11-09T02:42:57.295Z,100294.28
2022-11-09T02:45:23.860Z,100295.34
2022-11-09T02:47:50.421Z,100285.38
2022-11-09T02:50:17.080Z,100276.53
2022-11-09T02:52:43.669Z,100271.69
2022-11-09T02:55:10.763Z,100276.25
2022-11-09T02:57:38.385Z,100267.13
2022-11-09T03:00:06.326Z,100265.25
2022-11-09T03:02:34.648Z,100266.06
2022-11-09T03:05:01.811Z,100256.66
2022-11-09T03:07:28.721Z,100252.38
2022-11-09T03:09:55.761Z,100246.72
2022-11-09T03:12:30.383Z,100250.22
2022-11-09T03:15:09.923Z,100249.41
2022-11-09T03:17:40.657Z,100250.50
2022-11-09T03:20:08.168Z,100244.56
2022-11-09T03:22:36.281Z,100251.56
2022-11-09T03:25:03.483Z,100239.22
2022-11-09T03:27:30.843Z,100255.88
2022-11-09T03:29:57.766Z,100270.88
2022-11-09T03:32:24.448Z,100270.91
2022-11-09T03:34:51.581Z,100259.63
2022-11-09T03:37:19.911Z,100263.38
2022-11-09T03:39:46.699Z,100260.97
2022-11-09T03:44:40.399Z,100270.09
2022-11-09T03:47:06.958Z,100278.97
2022-11-09T03:49:33.562Z,100282.69
2022-11-09T03:52:00.124Z,100288.91
2022-11-09T03:54:26.741Z,100295.59
2022-11-09T03:56:53.611Z,100304.44
2022-11-09T03:59:20.334Z,100288.34
2022-11-09T04:01:46.946Z,100295.06
2022-11-09T04:04:13.526Z,100295.59
2022-11-09T04:06:40.170Z,100289.16
2022-11-09T04:09:06.802Z,100296.97
2022-11-09T04:11:33.411Z,100292.91
2022-11-09T04:14:00.045Z,100303.13
2022-11-09T04:16:26.723Z,100303.66
2022-11-09T04:18:53.501Z,100299.34
2022-11-09T04:21:23.674Z,100304.44
2022-11-09T04:23:50.735Z,100307.94
2022-11-09T04:26:17.557Z,100301.75
2022-11-09T04:28:45.182Z,100293.47
2022-11-09T04:31:11.823Z,100301.53
2022-11-09T04:33:38.363Z,100293.97
2022-11-09T04:36:05.506Z,100288.88
2022-11-09T04:38:32.252Z,100289.16
2022-11-09T04:41:04.131Z,100292.09
2022-11-09T04:43:30.989Z,100305.00
2022-11-09T04:46:02.953Z,100303.66
2022-11-09T04:48:31.051Z,100311.97
2022-11-09T04:51:08.871Z,100304.44
2022-11-09T04:53:36.455Z,100297.72
2022-11-09T04:56:04.342Z,100295.00
2022-11-09T04:58:32.826Z,100303.88
2022-11-09T05:01:21.558Z,100295.81
2022-11-09T05:03:48.219Z,100317.59
2022-11-09T05:06:34.759Z,100312.50
2022-11-09T05:09:07.628Z,100317.56
2022-11-09T05:11:35.708Z,100317.53
2022-11-09T05:14:02.993Z,100311.88
2022-11-09T05:16:30.170Z,100313.75
2022-11-09T05:18:56.806Z,100316.16
2022-11-09T05:21:23.570Z,100322.31
2022-11-09T05:24:02.964Z,100328.78
2022-11-09T05:26:37.030Z,100334.72
2022-11-09T05:29:06.803Z,100349.81
2022-11-09T05:31:34.580Z,100337.41
2022-11-09T05:34:01.988Z,100340.91
2022-11-09T05:36:30.641Z,100344.91
2022-11-09T05:38:58.397Z,100339.78
2022-11-09T05:41:25.811Z,100337.91
2022-11-09T05:43:52.675Z,100338.47
2022-11-09T05:46:19.900Z,100322.84
2022-11-09T05:48:47.394Z,100322.06
2022-11-09T05:51:16.154Z,100326.03
2022-11-09T05:53:46.372Z,100322.03
2022-11-09T05:56:15.376Z,100331.72
2022-11-09T05:58:42.849Z,100323.38
2022-11-09T06:01:15.100Z,100334.72
2022-11-09T06:03:43.959Z,100336.59
2022-11-09T06:06:13.318Z,100327.44
2022-11-09T06:08:41.251Z,100310.19
2022-11-09T06:11:10.806Z,100307.78
2022-11-09T06:13:37.690Z,100310.53
2022-11-09T06:16:05.967Z,100311.38
2022-11-09T06:18:35.170Z,100340.13
2022-11-09T06:21:03.555Z,100342.25
2022-11-09T06:23:30.474Z,100329.28
2022-11-09T06:25:58.019Z,100328.78
2022-11-09T06:28:24.680Z,100332.50
2022-11-09T06:30:51.681Z,100348.13
2022-11-09T06:33:18.703Z,100339.00
2022-11-09T06:35:45.694Z,100346.78
2022-11-09T06:38:12.371Z,100333.59
2022-11-09T06:40:39.325Z,100332.31
2022-11-09T06:43:06.671Z,100330.47
2022-11-09T06:45:33.561Z,100337.47
2022-11-09T06:48:02.610Z,100344.19
2022-11-09T06:50:32.199Z,100328.09
2022-11-09T06:53:03.593Z,100319.78
2022-11-09T06:55:34.223Z,100324.63
2022-11-09T06:58:05.983Z,100307.19
2022-11-09T07:00:32.986Z,100295.59
2022-11-09T07:02:59.592Z,100293.44
2022-11-09T07:05:26.141Z,100288.88
2022-11-09T07:07:54.915Z,100293.72
2022-11-09T07:10:21.569Z,100291.56
2022-11-09T07:12:48.371Z,100304.72
2022-11-09T07:15:15.044Z,100310.63
2022-11-09T07:17:41.847Z,100325.66
2022-11-09T07:20:13.123Z,100348.22
2022-11-09T07:22:39.962Z,100349.84
2022-11-09T07:25:07.617Z,100347.72
2022-11-09T07:27:34.386Z,100349.34
2022-11-09T07:30:01.291Z,100351.19
2022-11-09T07:32:54.226Z,100352.81
2022-11-09T07:35:18.059Z,100340.16
2022-11-09T07:37:44.763Z,100352.00
2022-11-09T07:40:11.932Z,100356.81
2022-11-09T07:42:38.954Z,100357.38
2022-11-09T07:45:06.715Z,100363.78
2022-11-09T07:47:33.246Z,100371.31
2022-11-09T07:49:59.869Z,100370.25
2022-11-09T07:52:28.701Z,100390.69
2022-11-09T07:54:56.542Z,100390.69
2022-11-09T07:57:23.299Z,100398.19
2022-11-09T07:59:51.737Z,100404.91
2022-11-09T08:02:21.264Z,100410.53
2022-11-09T08:04:47.913Z,100412.41
2022-11-09T08:07:14.648Z,100414.31
2022-11-09T08:09:41.349Z,100418.59
2022-11-09T08:12:08.176Z,100408.38
2022-11-09T08:14:37.418Z,100415.91
2022-11-09T08:17:04.018Z,100409.72
2022-11-09T08:19:30.736Z,100419.94
2022-11-09T08:21:57.884Z,100415.88
2022-11-09T08:24:24.614Z,100420.19
2022-11-09T08:26:51.239Z,100416.41
2022-11-09T08:29:17.891Z,100418.03
2022-11-09T08:31:44.591Z,100430.34
2022-11-09T08:34:14.223Z,100432.47
2022-11-09T08:36:41.272Z,100428.13
2022-11-09T08:39:08.092Z,100439.19
2022-11-09T08:41:34.794Z,100437.28
2022-11-09T08:44:01.561Z,100438.84
2022-11-09T08:46:31.135Z,100438.78
2022-11-09T08:49:00.282Z,100443.00
2022-11-09T08:51:26.936Z,100450.81
2022-11-09T08:53:54.637Z,100453.47
2022-11-09T08:56:21.357Z,100455.50
2022-11-09T08:58:48.143Z,100445.44
2022-11-09T09:01:17.331Z,100442.94
2022-11-09T09:03:44.556Z,100449.09
2022-11-09T09:06:11.172Z,100438.78
2022-11-09T09:08:37.813Z,100446.22
2022-11-09T09:11:05.307Z,100447.16
2022-11-09T09:13:33.174Z,100442.59
2022-11-09T09:16:10.027Z,100445.88
2022-11-09T09:18:36.852Z,100450.09
2022-11-09T09:21:06.999Z,100448.72
2022-11-09T09:23:34.173Z,100452.66
2022-11-09T09:26:00.832Z,100454.66
2022-11-09T09:28:27.504Z,100454.06
2022-11-09T09:30:54.343Z,100457.69
2022-11-09T09:33:21.908Z,100454.78
2022-11-09T09:35:48.805Z,100453.03
2022-11-09T12:19:48.519Z,100431.28
2022-11-09T12:22:55.706Z,100430.09
2022-11-09T12:25:48.554Z,100429.25
2022-11-09T12:28:47.120Z,100427.72
2022-11-09T12:31:47.980Z,100421.50
2022-11-09T12:34:46.677Z,100424.22
2022-11-09T12:37:44.205Z,100425.38
2022-11-09T12:40:43.805Z,100411.25
2022-11-09T12:43:45.481Z,100412.22
2022-11-09T12:46:44.627Z,100421.56
2022-11-09T12:49:38.286Z,100402.22
2022-11-09T12:52:30.745Z,100407.63
2022-11-09T12:55:24.042Z,100413.94
2022-11-09T12:58:27.163Z,100413.81
2022-11-09T13:01:35.798Z,100407.66
2022-11-09T13:04:24.136Z,100407.38
2022-11-09T13:07:09.713Z,100422.59
2022-11-09T13:13:04.516Z,100417.09
2022-11-09T13:16:33.613Z,100415.16
2022-11-09T13:19:34.611Z,100415.72
2022-11-09T13:25:51.240Z,100415.16
2022-11-09T13:28:42.412Z,100418.44
2022-11-09T13:32:05.656Z,100414.16
2022-11-09T13:35:01.325Z,100418.03
2022-11-09T13:37:55.364Z,100419.63
2022-11-09T13:40:45.161Z,100418.03
2022-11-09T13:43:41.399Z,100428.00
2022-11-09T13:46:38.523Z,100430.47
2022-11-09T13:49:45.940Z,100427.28
2022-11-09T13:52:44.404Z,100433.28
2022-11-09T13:58:52.988Z,100428.16
2022-11-09T14:02:04.705Z,100422.25
2022-11-09T14:04:53.593Z,100418.97
2022-11-09T14:07:46.213Z,100431.44
2022-11-09T14:10:54.661Z,100431.22
2022-11-09T14:14:25.771Z,100429.16
2022-11-09T14:17:25.446Z,100440.94
2022-11-09T14:20:17.450Z,100439.34
2022-11-09T14:23:08.851Z,100444.34
2022-11-09T14:25:55.615Z,100435.13
2022-11-09T14:28:41.167Z,100443.97
2022-11-09T14:31:31.663Z,100441.75
2022-11-09T14:34:18.193Z,100444.75
2022-11-09T14:37:06.565Z,100444.00
2022-11-09T14:39:54.409Z,100444.63
2022-11-09T14:42:43.503Z,100441.69
2022-11-09T14:45:31.812Z,100449.06
2022-11-09T14:48:22.375Z,100444.38
2022-11-09T14:51:17.744Z,100438.47
2022-11-09T14:54:09.620Z,100441.53
2022-11-09T14:57:05.474Z,100431.28
2022-11-09T14:59:54.190Z,100435.72
2022-11-09T15:02:45.537Z,100452.28
2022-11-09T15:05:39.428Z,100457.97
2022-11-09T15:08:34.993Z,100463.13
2022-11-09T15:11:22.505Z,100470.16
2022-11-09T15:14:35.572Z,100483.59
2022-11-09T15:17:27.408Z,100481.19
2022-11-09T15:20:27.085Z,100488.19
2022-11-09T15:23:47.083Z,100485.22
2022-11-09T15:26:44.612Z,100484.28
2022-11-09T15:29:45.382Z,100483.84
2022-11-09T15:32:41.660Z,100486.59
2022-11-09T15:35:30.281Z,100489.91
2022-11-09T15:38:32.654Z,100487.19
2022-11-09T15:41:25.888Z,100490.22
2022-11-09T15:44:13.836Z,100488.94
2022-11-09T15:47:04.392Z,100487.63
2022-11-09T15:49:57.698Z,100487.03
2022-11-09T15:52:54.182Z,100494.84
2022-11-09T15:55:44.550Z,100495.38
2022-11-09T15:59:27.394Z,100503.47
2022-11-09T16:02:28.822Z,100511.09
2022-11-09T16:08:40.280Z,100510.56
2022-11-09T16:11:29.440Z,100512.44
2022-11-09T16:14:22.403Z,100522.88
2022-11-09T16:17:12.337Z,100534.72
2022-11-09T16:19:58.550Z,100538.81
2022-11-09T16:22:58.495Z,100545.63
2022-11-09T16:28:58.402Z,100560.44
2022-11-09T16:39:06.107Z,100567.53
2022-11-09T16:41:51.928Z,100574.16
2022-11-09T16:44:39.941Z,100583.84
2022-11-09T16:47:25.053Z,100580.34
2022-11-09T16:50:10.354Z,100584.38
2022-11-09T16:52:55.507Z,100597.84
2022-11-09T16:55:41.047Z,100607.53
2022-11-09T16:58:26.295Z,100598.81
2022-11-09T17:01:13.016Z,100601.44
2022-11-09T17:03:59.802Z,100597.09
2022-11-09T17:06:45.520Z,100606.00
2022-11-09T17:09:34.412Z,100602.78
2022-11-09T17:12:19.527Z,100607.41
2022-11-09T17:15:05.803Z,100609.03
2022-11-09T17:17:50.809Z,100616.34
2022-11-09T17:20:44.702Z,100623.34
2022-11-09T17:23:31.447Z,100624.44
2022-11-09T17:26:17.878Z,100634.44
2022-11-09T17:29:03.401Z,100646.56
2022-11-09T17:31:48.735Z,100653.84
2022-11-09T17:34:34.766Z,100644.69
2022-11-09T17:37:20.115Z,100649.81
2022-11-09T17:40:05.833Z,100652.78
2022-11-09T17:42:51.000Z,100662.50
2022-11-09T17:45:36.571Z,100658.22
2022-11-09T17:48:21.817Z,100659.31
2022-11-09T17:51:09.130Z,100654.47
2022-11-09T17:53:54.807Z,100655.56
2022-11-09T17:56:40.305Z,100666.84
2022-11-09T17:59:25.510Z,100667.91
2022-11-09T18:02:10.768Z,100678.16
2022-11-09T18:04:55.892Z,100672.25
2022-11-09T18:07:41.619Z,100679.78
2022-11-09T18:10:26.826Z,100681.16
2022-11-09T18:13:12.370Z,100683.59
2022-11-09T18:15:57.658Z,100682.00
2022-11-09T18:18:42.909Z,100688.41
2022-11-09T18:21:28.664Z,100696.56
2022-11-09T18:24:14.369Z,100686.84
2022-11-09T18:27:00.270Z,100698.72
2022-11-09T18:29:45.414Z,100697.94
2022-11-09T18:32:30.909Z,100710.59
2022-11-09T18:35:16.255Z,100701.41
2022-11-09T18:38:01.271Z,100711.66
2022-11-09T18:41:03.026Z,100713.34
2022-11-09T18:43:48.842Z,100716.88
2022-11-09T18:46:35.346Z,100726.28
2022-11-09T18:49:20.624Z,100721.16
2022-11-09T18:52:06.067Z,100724.09
2022-11-09T18:54:51.304Z,100732.66
2022-11-09T18:57:36.477Z,100742.91
2022-11-09T19:00:21.981Z,100742.91
2022-11-09T19:03:12.676Z,100751.03
2022-11-09T19:05:58.175Z,100752.38
2022-11-09T19:09:02.732Z,100755.63
2022-11-09T19:11:48.028Z,100755.38
2022-11-09T19:14:40.522Z,100755.13
2022-11-09T19:17:25.729Z,100748.91
2022-11-09T19:20:12.876Z,100761.63
2022-11-09T19:22:58.319Z,100768.06
2022-11-09T19:25:43.571Z,100759.19
2022-11-09T19:28:29.092Z,100763.25
2022-11-09T19:31:16.280Z,100767.84
2022-11-09T19:34:01.375Z,100770.50
2022-11-09T19:36:46.796Z,100778.63
2022-11-09T19:39:34.728Z,100784.53
2022-11-09T19:42:21.411Z,100789.66
2022-11-09T19:45:09.390Z,100790.19
2022-11-09T19:47:54.768Z,100791.28
2022-11-09T19:50:39.984Z,100794.75
2022-11-09T19:53:26.705Z,100806.63
2022-11-09T19:56:11.984Z,100806.63
2022-11-09T19:59:00.753Z,100797.19
2022-11-09T20:01:46.100Z,100810.41
2022-11-09T20:04:33.045Z,100810.41
2022-11-09T20:07:18.759Z,100817.41
2022-11-09T20:10:06.527Z,100826.00
2022-11-09T20:12:51.780Z,100823.59
2022-11-09T20:15:37.079Z,100824.94
2022-11-09T20:18:23.919Z,100827.63
2022-11-09T20:21:09.096Z,100833.28
2022-11-09T20:23:54.470Z,100831.41
2022-11-09T20:26:40.627Z,100846.19
2022-11-09T20:29:25.951Z,100840.00
2022-11-09T20:32:12.425Z,100850.78
2022-11-09T20:34:57.889Z,100847.25
2022-11-09T20:37:43.223Z,100856.69
2022-11-09T20:40:28.278Z,100858.31
2022-11-09T20:43:13.549Z,100858.31
2022-11-09T20:46:06.841Z,100860.47
2022-11-09T20:48:54.698Z,100869.63
2022-11-09T20:51:40.808Z,100876.38
2022-11-09T20:54:26.106Z,100871.81
2022-11-09T20:57:12.510Z,100880.19
2022-11-09T20:59:57.548Z,100881.47
2022-11-09T21:02:43.122Z,100878.75
2022-11-09T21:05:28.115Z,100885.22
2022-11-09T21:08:13.528Z,100887.88
2022-11-09T21:11:03.987Z,100894.81
2022-11-09T21:13:56.102Z,100900.19
2022-11-09T21:16:41.034Z,100899.34
2022-11-09T21:19:26.512Z,100898.56
2022-11-09T21:22:11.888Z,100908.78
2022-11-09T21:25:15.794Z,100913.09
2022-11-09T21:28:19.589Z,100921.94
2022-11-09T21:31:05.263Z,100929.75
2022-11-09T21:33:53.144Z,100936.22
2022-11-09T21:36:38.175Z,100943.25
2022-11-09T21:39:23.904Z,100950.38
2022-11-09T21:42:11.888Z,100951.50
2022-11-09T21:44:57.082Z,100954.72
2022-11-09T21:47:42.632Z,100960.88
2022-11-09T21:50:27.813Z,100972.44
2022-11-09T21:53:13.138Z,100976.78
2022-11-09T21:55:59.660Z,100980.56
2022-11-09T21:58:48.816Z,100972.81
2022-11-09T22:01:34.180Z,100975.81
2022-11-09T22:04:19.444Z,100984.19
2022-11-09T22:07:04.936Z,100991.72
2022-11-09T22:10:09.329Z,100990.66
2022-11-09T22:13:13.506Z,100984.97
2022-11-09T22:16:09.702Z,100990.06
2022-11-09T22:19:14.115Z,100997.81
2022-11-09T22:22:00.567Z,100997.22
2022-11-09T22:24:45.938Z,101006.59
2022-11-09T22:27:32.307Z,101008.41
2022-11-09T22:30:17.554Z,101008.63
2022-11-09T22:33:03.096Z,101017.50
2022-11-09T22:36:05.383Z,101023.44
2022-11-09T22:38:51.043Z,101026.13
2022-11-09T22:41:36.447Z,101033.09
2022-11-09T22:44:21.735Z,101044.91
2022-11-09T22:47:07.109Z,101048.38
2022-11-09T22:49:52.333Z,101049.72
2022-11-09T22:52:37.569Z,101050.22
2022-11-09T22:55:23.888Z,101050.97
2022-11-09T22:58:09.536Z,101057.94
2022-11-09T23:00:54.944Z,101071.09
2022-11-09T23:03:40.331Z,101069.44
2022-11-09T23:06:26.071Z,101075.38
2022-11-09T23:09:11.127Z,101072.13
2022-11-09T23:11:56.445Z,101072.69
2022-11-09T23:15:00.005Z,101076.16
2022-11-09T23:18:03.886Z,101076.63
2022-11-09T23:20:49.290Z,101080.94
2022-11-09T23:23:35.079Z,101088.47
2022-11-09T23:26:21.092Z,101084.13
2022-11-09T23:29:06.391Z,101083.78
2022-11-09T23:31:51.919Z,101097.00
2022-11-09T23:34:37.134Z,101093.50
2022-11-09T23:37:22.745Z,101093.50
2022-11-09T23:40:08.576Z,101096.38
2022-11-09T23:42:59.893Z,101100.66
2022-11-09T23:45:45.706Z,101109.44
2022-11-09T23:48:31.253Z,101104.59
2022-11-09T23:51:18.445Z,101109.34
2022-11-09T23:54:03.518Z,101109.31
2022-11-09T23:56:48.692Z,101109.53
2022-11-09T23:59:33.863Z,101114.63
